Time;durP1;ratioP1;P1;durP2;ratioP2;P2;SDS_P1;SDS_P2;PMS_P1;PMS_P2;Temp;Humidity;BMP_temperature;BMP_pressure;BME280_temperature;BME280_humidity;BME280_pressure;Samples;Min_cycle;Max_cycle;Signal;HPM_P1;HPM_P2
2021/10/01 00:01:46;;;;;;;1.98;1.40;;;8.30;83.30;;;;;;4888491;29;20418;-90
2021/10/01 00:04:12;;;;;;;1.75;1.38;;;8.30;83.30;;;;;;4877645;29;20029;-90
2021/10/01 00:06:39;;;;;;;2.00;1.70;;;8.20;83.40;;;;;;4889568;29;20033;-90
2021/10/01 00:09:05;;;;;;;1.73;1.40;;;8.20;83.60;;;;;;4876705;29;20033;-89
2021/10/01 00:11:31;;;;;;;3.55;1.17;;;8.20;83.60;;;;;;4872160;29;20147;-89
2021/10/01 00:13:57;;;;;;;2.17;1.58;;;8.20;83.70;;;;;;4881355;29;20590;-90
2021/10/01 00:16:26;;;;;;;2.13;1.33;;;8.20;83.70;;;;;;4879301;29;20076;-89
2021/10/01 00:18:52;;;;;;;2.42;1.10;;;8.10;83.80;;;;;;4881762;29;20061;-91
2021/10/01 00:21:17;;;;;;;1.58;1.45;;;8.10;83.80;;;;;;4881128;29;20029;-91
2021/10/01 00:23:43;;;;;;;2.67;1.50;;;8.10;83.90;;;;;;4880009;29;20035;-89
2021/10/01 00:26:09;;;;;;;3.10;1.25;;;8.10;83.90;;;;;;4880686;29;20128;-89
2021/10/01 00:28:35;;;;;;;2.78;1.17;;;8.10;83.90;;;;;;4880080;29;20040;-90
2021/10/01 00:31:00;;;;;;;1.77;1.20;;;8.00;83.90;;;;;;4880006;29;20083;-89
2021/10/01 00:33:26;;;;;;;1.50;1.40;;;8.00;84.00;;;;;;4880628;29;20025;-90
2021/10/01 00:35:52;;;;;;;3.47;1.40;;;8.00;84.00;;;;;;4881246;29;20032;-91
2021/10/01 00:38:18;;;;;;;2.35;1.27;;;8.00;84.10;;;;;;4881449;29;20501;-90
2021/10/01 00:40:43;;;;;;;1.83;1.33;;;7.90;84.20;;;;;;4881006;29;20040;-90
2021/10/01 00:43:09;;;;;;;1.65;1.15;;;7.90;84.20;;;;;;4879678;29;20399;-90
2021/10/01 00:45:35;;;;;;;3.55;1.45;;;7.90;84.30;;;;;;4878145;29;20136;-91
2021/10/01 00:48:00;;;;;;;1.40;1.30;;;7.80;84.40;;;;;;4876286;29;20036;-90
2021/10/01 00:50:26;;;;;;;1.88;1.35;;;7.80;84.40;;;;;;4880797;29;20430;-92
2021/10/01 00:52:53;;;;;;;2.70;1.48;;;7.80;84.50;;;;;;4880683;29;20057;-90
2021/10/01 00:55:18;;;;;;;1.42;1.33;;;7.80;84.70;;;;;;4882646;29;20537;-90
2021/10/01 00:57:44;;;;;;;1.77;1.20;;;7.80;84.70;;;;;;4880620;29;20088;-90
2021/10/01 01:00:23;;;;;;;2.15;1.50;;;7.80;84.70;;;;;;4896275;29;20029;-91
2021/10/01 01:02:50;;;;;;;2.60;1.42;;;7.80;84.70;;;;;;4892453;29;20018;-94
2021/10/01 01:05:15;;;;;;;4.55;1.60;;;7.80;84.70;;;;;;4902106;29;20039;-92
2021/10/01 01:07:51;;;;;;;2.05;1.23;;;7.80;84.60;;;;;;4881646;29;20350;-90
2021/10/01 01:10:45;;;;;;;3.08;1.60;;;7.80;84.80;;;;;;4880035;29;20116;-91
2021/10/01 01:13:41;;;;;;;2.67;1.30;;;7.80;84.90;;;;;;4872499;29;20029;-89
2021/10/01 01:16:10;;;;;;;1.60;1.45;;;7.80;85.40;;;;;;4879061;29;20032;-90
2021/10/01 01:18:44;;;;;;;1.23;1.13;;;7.80;84.80;;;;;;4880097;29;20044;-90
2021/10/01 01:21:38;;;;;;;1.38;1.25;;;7.80;84.80;;;;;;4877435;29;20124;-90
2021/10/01 01:24:09;;;;;;;2.35;1.35;;;7.70;84.80;;;;;;4823602;29;20041;-91
2021/10/01 01:26:51;;;;;;;1.85;1.10;;;7.70;84.70;;;;;;4878607;29;20029;-90
2021/10/01 01:29:41;;;;;;;1.60;1.15;;;7.70;84.90;;;;;;4878616;29;20041;-90
2021/10/01 01:32:21;;;;;;;2.35;1.40;;;7.70;85.00;;;;;;4893828;29;20036;-90
2021/10/01 01:34:55;;;;;;;2.13;1.35;;;7.60;85.20;;;;;;4878601;29;20033;-90
2021/10/01 01:37:56;;;;;;;1.90;1.50;;;7.60;85.10;;;;;;4876270;29;20498;-90
2021/10/01 01:40:25;;;;;;;4.13;1.17;;;7.60;85.30;;;;;;4861689;29;20036;-90
2021/10/01 01:42:53;;;;;;;2.13;1.45;;;7.50;85.10;;;;;;4877611;29;20176;-90
2021/10/01 01:45:20;;;;;;;3.20;1.20;;;7.50;85.30;;;;;;4877111;29;20032;-90
2021/10/01 01:47:47;;;;;;;1.92;1.33;;;7.50;85.30;;;;;;4876154;29;20057;-90
2021/10/01 01:50:14;;;;;;;1.58;1.40;;;7.60;85.50;;;;;;4872580;29;20126;-90
2021/10/01 01:52:42;;;;;;;3.20;1.50;;;7.60;85.50;;;;;;4878414;29;20341;-90
2021/10/01 01:55:09;;;;;;;1.80;1.50;;;7.60;85.50;;;;;;4879241;29;20085;-90
2021/10/01 01:57:36;;;;;;;1.52;1.42;;;7.60;85.50;;;;;;4876614;29;20525;-90
2021/10/01 02:00:03;;;;;;;1.83;1.15;;;7.60;85.50;;;;;;4872706;29;20120;-90
2021/10/01 02:02:30;;;;;;;1.15;1.10;;;7.60;85.50;;;;;;4878740;29;20029;-91
2021/10/01 02:05:00;;;;;;;1.40;1.30;;;7.50;85.40;;;;;;4877155;29;20114;-90
2021/10/01 02:07:31;;;;;;;1.33;1.23;;;7.50;85.50;;;;;;4879029;29;20092;-90
2021/10/01 02:09:57;;;;;;;1.20;1.10;;;7.50;86.00;;;;;;4878518;29;20084;-90
2021/10/01 02:12:24;;;;;;;2.38;1.50;;;7.50;85.50;;;;;;4876915;29;20100;-91
2021/10/01 02:14:55;;;;;;;2.78;1.20;;;7.50;85.60;;;;;;4879579;29;20044;-90
2021/10/01 02:17:24;;;;;;;4.55;1.38;;;7.40;85.80;;;;;;4878916;29;20032;-90
2021/10/01 02:19:54;;;;;;;2.40;1.20;;;7.40;85.90;;;;;;4876136;29;20246;-90
2021/10/01 02:22:21;;;;;;;2.03;1.33;;;7.40;85.90;;;;;;4878650;29;20550;-90
2021/10/01 02:24:46;;;;;;;3.95;1.35;;;7.40;85.90;;;;;;4878263;29;20030;-89
2021/10/01 02:27:31;;;;;;;2.08;1.08;;;7.40;85.90;;;;;;4877216;29;20106;-89
2021/10/01 02:29:56;;;;;;;2.55;1.40;;;7.40;86.00;;;;;;4878401;29;20029;-90
2021/10/01 02:32:37;;;;;;;3.70;1.27;;;7.40;85.90;;;;;;4878205;29;20045;-89
2021/10/01 02:35:05;;;;;;;1.38;1.27;;;7.30;86.00;;;;;;4878105;29;20068;-90
2021/10/01 02:37:32;;;;;;;1.92;1.10;;;7.30;86.00;;;;;;4866799;29;20033;-89
2021/10/01 02:39:59;;;;;;;5.28;1.58;;;7.30;86.00;;;;;;4876058;29;20064;-90
2021/10/01 02:42:31;;;;;;;3.22;1.23;;;7.30;86.10;;;;;;4876046;29;20494;-90
2021/10/01 02:44:58;;;;;;;3.13;1.40;;;7.20;86.20;;;;;;4876412;29;20093;-90
2021/10/01 02:47:33;;;;;;;1.20;1.10;;;7.20;86.10;;;;;;4870560;29;20239;-91
2021/10/01 02:50:09;;;;;;;2.08;1.40;;;7.20;86.40;;;;;;4879345;29;20016;-90
2021/10/01 02:52:56;;;;;;;3.50;1.33;;;7.20;86.50;;;;;;4875617;29;20029;-90
2021/10/01 02:55:35;;;;;;;1.80;1.33;;;7.30;86.50;;;;;;4867086;29;20025;-89
2021/10/01 02:58:10;;;;;;;1.40;1.30;;;7.20;86.30;;;;;;4868774;29;20052;-90
2021/10/01 03:00:39;;;;;;;1.63;1.50;;;7.20;86.30;;;;;;4875820;29;20068;-90
2021/10/01 03:03:24;;;;;;;1.95;1.27;;;7.20;86.30;;;;;;4877036;29;20037;-90
2021/10/01 03:05:57;;;;;;;2.90;1.40;;;7.20;86.50;;;;;;4877842;29;20021;-89
2021/10/01 03:08:26;;;;;;;1.48;1.20;;;7.10;86.50;;;;;;4877855;29;20402;-90
2021/10/01 03:10:53;;;;;;;1.60;1.33;;;7.10;86.50;;;;;;4877884;29;20029;-90
2021/10/01 03:13:23;;;;;;;3.65;1.35;;;7.10;86.60;;;;;;4879751;29;20053;-90
2021/10/01 03:15:53;;;;;;;1.80;1.13;;;7.10;86.80;;;;;;4878868;29;20399;-90
2021/10/01 03:18:20;;;;;;;1.67;1.40;;;7.10;86.70;;;;;;4876529;29;20438;-91
2021/10/01 03:20:48;;;;;;;1.83;1.40;;;7.10;86.70;;;;;;4875087;29;20029;-90
2021/10/01 03:23:17;;;;;;;1.80;1.30;;;7.10;86.70;;;;;;4877805;29;20446;-90
2021/10/01 03:25:44;;;;;;;1.70;1.30;;;7.10;86.70;;;;;;4865465;29;20033;-90
2021/10/01 03:28:12;;;;;;;2.80;1.20;;;7.10;86.80;;;;;;4878508;29;20120;-90
2021/10/01 03:30:44;;;;;;;3.55;1.38;;;7.10;86.80;;;;;;4881917;29;20029;-91
2021/10/01 03:33:13;;;;;;;1.70;1.30;;;7.00;86.80;;;;;;4900738;29;20049;-91
2021/10/01 03:35:41;;;;;;;3.65;1.63;;;7.00;86.70;;;;;;4899944;29;20056;-92
2021/10/01 03:38:10;;;;;;;1.65;1.55;;;7.00;86.80;;;;;;4887891;29;20104;-90
2021/10/01 03:40:36;;;;;;;1.90;1.42;;;7.00;86.90;;;;;;4876545;29;20048;-90
2021/10/01 03:43:07;;;;;;;3.75;1.38;;;7.00;86.90;;;;;;4878023;29;20033;-90
2021/10/01 03:45:36;;;;;;;2.58;1.40;;;7.00;87.00;;;;;;4873989;29;20048;-90
2021/10/01 03:48:04;;;;;;;1.95;1.40;;;7.00;87.00;;;;;;4876016;29;20405;-90
2021/10/01 03:50:34;;;;;;;4.15;1.52;;;6.90;86.90;;;;;;4880873;29;20108;-90
2021/10/01 03:53:09;;;;;;;2.30;1.40;;;6.90;87.00;;;;;;4877312;29;20090;-90
2021/10/01 03:55:40;;;;;;;1.65;1.35;;;6.90;87.10;;;;;;4880935;29;20409;-90
2021/10/01 03:58:08;;;;;;;3.47;1.58;;;6.90;87.10;;;;;;4881255;29;20052;-89
2021/10/01 04:00:37;;;;;;;4.65;1.30;;;6.80;87.10;;;;;;4880812;29;20131;-91
2021/10/01 04:03:05;;;;;;;3.53;1.30;;;6.80;87.80;;;;;;4881588;29;20038;-90
2021/10/01 04:05:31;;;;;;;1.65;1.20;;;6.80;87.30;;;;;;4878355;29;20045;-90
2021/10/01 04:07:57;;;;;;;1.50;1.25;;;6.80;87.30;;;;;;4878773;29;20096;-90
2021/10/01 04:10:23;;;;;;;1.67;1.10;;;6.80;87.20;;;;;;4880690;29;20040;-90
2021/10/01 04:12:49;;;;;;;2.22;1.50;;;6.80;87.30;;;;;;4880120;29;20033;-89
2021/10/01 04:15:14;;;;;;;1.65;1.40;;;6.70;87.40;;;;;;4880988;29;20048;-90
2021/10/01 04:17:40;;;;;;;1.38;1.27;;;6.70;87.50;;;;;;4879176;29;20036;-89
2021/10/01 04:20:06;;;;;;;2.13;1.33;;;6.60;87.50;;;;;;4883510;29;20192;-90
2021/10/01 04:22:32;;;;;;;3.70;1.60;;;6.60;87.60;;;;;;4880496;29;20033;-90
2021/10/01 04:24:58;;;;;;;5.40;1.45;;;6.60;87.70;;;;;;4880040;29;20470;-90
2021/10/01 04:27:24;;;;;;;1.92;1.40;;;6.70;87.80;;;;;;4880837;29;20025;-90
2021/10/01 04:29:49;;;;;;;3.25;1.60;;;6.70;87.70;;;;;;4877199;29;20056;-90
2021/10/01 04:32:15;;;;;;;3.45;1.65;;;6.60;87.70;;;;;;4880288;29;20462;-90
2021/10/01 04:37:21;;;;;;;3.22;1.67;;;6.60;87.70;;;;;;4881870;29;20057;-91
2021/10/01 04:39:47;;;;;;;4.10;1.80;;;6.60;87.80;;;;;;4879983;29;20498;-90
2021/10/01 04:42:13;;;;;;;4.82;1.77;;;6.60;87.80;;;;;;4881024;29;20457;-90
2021/10/01 04:44:38;;;;;;;1.65;1.50;;;6.60;87.80;;;;;;4880330;29;20021;-92
2021/10/01 04:47:04;;;;;;;1.50;1.10;;;6.60;87.90;;;;;;4880944;29;20622;-90
2021/10/01 04:49:30;;;;;;;2.55;1.58;;;6.60;87.90;;;;;;4878810;29;20034;-90
2021/10/01 06:00:06;;;;;;;2.95;1.60;;;6.50;88.50;;;;;;4879221;29;20049;-90
2021/10/01 06:07:22;;;;;;;1.60;1.42;;;6.60;88.70;;;;;;4865819;29;20049;-91
2021/10/01 06:33:17;;;;;;;2.00;1.90;;;7.00;88.80;;;;;;5261780;23;20065;-91
2021/10/01 06:36:19;;;;;;;3.45;1.67;;;7.10;88.80;;;;;;4880814;29;20042;-91
2021/10/01 06:39:02;;;;;;;4.28;1.65;;;7.20;88.90;;;;;;4861426;29;20026;-91
2021/10/01 06:41:41;;;;;;;3.05;1.95;;;7.20;88.70;;;;;;4843311;29;20026;-92
2021/10/01 06:44:46;;;;;;;2.50;1.65;;;7.30;88.60;;;;;;4831495;29;20145;-92
2021/10/01 09:04:56;;;;;;;2.13;1.23;;;16.30;77.10;;;;;;4867416;29;20068;-91
2021/10/01 09:11:31;;;;;;;2.33;1.10;;;16.00;77.40;;;;;;4799208;29;20452;-90
2021/10/01 09:14:27;;;;;;;1.92;1.00;;;15.90;77.60;;;;;;4868668;29;20032;-91
2021/10/01 09:16:54;;;;;;;1.70;0.95;;;15.80;77.80;;;;;;4849386;29;20488;-90
2021/10/01 09:19:42;;;;;;;1.40;0.82;;;15.90;78.10;;;;;;4858464;29;20037;-91
2021/10/01 09:22:44;;;;;;;1.65;0.70;;;15.90;77.80;;;;;;4844834;29;20183;-91
2021/10/01 09:25:31;;;;;;;7.28;1.15;;;16.20;77.90;;;;;;4859170;29;20068;-90
2021/10/01 09:28:12;;;;;;;2.10;0.98;;;16.40;77.10;;;;;;4860454;29;20067;-90
2021/10/01 09:31:16;;;;;;;1.45;0.70;;;16.60;76.80;;;;;;4862822;29;20026;-91
2021/10/01 09:34:00;;;;;;;1.65;0.73;;;16.70;76.20;;;;;;4839995;29;20105;-91
2021/10/01 09:36:45;;;;;;;7.32;1.40;;;16.80;76.50;;;;;;4856358;29;20038;-91
2021/10/01 09:40:07;;;;;;;2.95;0.85;;;17.10;76.30;;;;;;4861165;29;20050;-90
2021/10/01 09:42:49;;;;;;;2.72;0.90;;;17.20;75.10;;;;;;4854787;29;20045;-90
2021/10/01 09:49:00;;;;;;;;;;;;;;;;;;;;;
2021/10/01 09:59:31;;;;;;;1.60;0.88;;;18.40;73.40;;;;;;4821310;29;20061;-91
2021/10/01 10:02:37;;;;;;;3.83;0.88;;;18.50;72.50;;;;;;4848988;29;20376;-91
2021/10/01 10:05:28;;;;;;;1.75;0.77;;;18.60;72.30;;;;;;4865865;29;20072;-90
2021/10/01 10:08:09;;;;;;;2.22;0.90;;;18.50;72.20;;;;;;4849520;29;20040;-91
2021/10/01 10:11:00;;;;;;;1.25;0.70;;;18.40;71.90;;;;;;4864602;29;20041;-91
2021/10/01 10:14:12;;;;;;;1.35;0.73;;;18.30;71.60;;;;;;4863573;29;20029;-91
2021/10/01 10:16:47;;;;;;;1.17;1.02;;;18.40;71.60;;;;;;4833673;29;20057;-91
2021/10/01 10:19:30;;;;;;;4.03;0.68;;;18.50;71.70;;;;;;4857777;29;20125;-91
2021/10/01 10:22:26;;;;;;;1.65;0.55;;;18.60;71.30;;;;;;4857377;29;20037;-90
2021/10/01 10:25:52;;;;;;;3.17;0.50;;;18.60;70.40;;;;;;4865249;29;20037;-91
2021/10/01 10:28:28;;;;;;;2.80;0.63;;;18.70;70.30;;;;;;4867454;29;20402;-90
2021/10/01 10:31:03;;;;;;;2.58;0.80;;;18.90;70.00;;;;;;4857972;29;20029;-90
2021/10/01 10:34:19;;;;;;;1.08;0.63;;;18.90;69.30;;;;;;4870168;29;20102;-89
2021/10/01 10:40:02;;;;;;;0.40;0.40;;;18.80;68.50;;;;;;4807029;29;20113;-89
2021/10/01 10:42:44;;;;;;;1.88;0.60;;;18.80;68.80;;;;;;4853846;29;20170;-90
2021/10/01 10:45:17;;;;;;;0.60;0.50;;;18.80;68.50;;;;;;4862857;29;20105;-90
2021/10/01 10:48:01;;;;;;;1.65;0.70;;;19.00;68.70;;;;;;4860680;29;20029;-90
2021/10/01 10:53:09;;;;;;;0.40;0.40;;;19.40;67.70;;;;;;4907353;23;20057;-85
2021/10/01 10:55:36;;;;;;;1.33;0.50;;;19.60;66.40;;;;;;4831765;29;20028;-85
2021/10/01 10:58:21;;;;;;;2.47;0.60;;;19.80;66.50;;;;;;4838715;29;20041;-84
2021/10/01 11:00:48;;;;;;;0.65;0.40;;;19.90;65.80;;;;;;4838644;29;20372;-83
2021/10/01 11:03:18;;;;;;;1.65;0.80;;;20.00;65.70;;;;;;4839382;29;20026;-84
2021/10/01 11:05:44;;;;;;;3.22;0.65;;;20.20;65.00;;;;;;4838579;29;20034;-84
2021/10/01 11:08:22;;;;;;;1.50;0.65;;;20.30;64.80;;;;;;4839753;29;20044;-83
2021/10/01 11:10:49;;;;;;;1.25;0.50;;;20.30;64.20;;;;;;4832837;29;20025;-85
2021/10/01 11:13:21;;;;;;;2.63;0.50;;;20.40;64.80;;;;;;4837845;29;20036;-82
2021/10/01 11:16:09;;;;;;;1.52;1.10;;;20.40;63.60;;;;;;4834507;29;20026;-85
2021/10/01 11:18:46;;;;;;;2.17;0.60;;;20.40;63.40;;;;;;4834374;29;20445;-82
2021/10/01 11:21:33;;;;;;;1.63;0.50;;;20.50;63.20;;;;;;4840564;29;20058;-85
2021/10/01 11:24:03;;;;;;;1.10;0.40;;;20.60;63.10;;;;;;4834778;29;20034;-86
2021/10/01 11:26:44;;;;;;;0.82;0.70;;;20.80;63.30;;;;;;4831009;29;20037;-85
2021/10/01 11:29:32;;;;;;;3.30;0.50;;;20.80;62.50;;;;;;4835397;29;20038;-86
2021/10/01 11:32:00;;;;;;;2.15;0.38;;;21.00;62.50;;;;;;4836292;29;20068;-84
2021/10/01 11:34:42;;;;;;;1.23;0.60;;;21.10;62.70;;;;;;4836168;29;20038;-85
2021/10/01 11:37:21;;;;;;;;;;;21.30;61.70;;;;;;4828273;29;20025;-85
2021/10/01 11:39:47;;;;;;;1.98;0.70;;;21.30;62.70;;;;;;4830854;29;20398;-85
2021/10/01 11:42:27;;;;;;;1.75;0.40;;;21.40;62.40;;;;;;4838585;29;20045;-84
2021/10/01 11:44:54;;;;;;;0.77;0.70;;;21.40;60.90;;;;;;4828047;29;20027;-85
2021/10/01 11:47:20;;;;;;;1.52;0.70;;;21.40;61.20;;;;;;4840184;29;20022;-86
2021/10/01 11:49:57;;;;;;;1.45;0.60;;;21.50;60.70;;;;;;4841657;29;20026;-85
2021/10/01 11:52:24;;;;;;;2.35;0.60;;;21.60;59.90;;;;;;4828699;29;20476;-85
2021/10/01 11:54:53;;;;;;;1.17;0.50;;;21.60;59.20;;;;;;4820894;29;20086;-85
2021/10/01 11:57:19;;;;;;;1.05;0.40;;;21.70;59.20;;;;;;4832670;29;20030;-84
2021/10/01 12:00:00;;;;;;;1.25;0.45;;;21.70;59.10;;;;;;4837775;29;20443;-82
2021/10/01 12:02:37;;;;;;;1.90;0.45;;;21.80;58.20;;;;;;4834777;29;20520;-84
2021/10/01 12:05:23;;;;;;;0.70;0.70;;;21.90;58.40;;;;;;4845459;29;20041;-84
2021/10/01 12:07:54;;;;;;;0.55;0.40;;;22.10;58.30;;;;;;4836097;29;20035;-85
2021/10/01 12:10:21;;;;;;;2.93;0.40;;;22.20;58.40;;;;;;4843078;29;20053;-84
2021/10/01 12:13:22;;;;;;;1.05;0.60;;;22.40;58.10;;;;;;4834928;29;20030;-84
2021/10/01 12:15:49;;;;;;;4.30;0.60;;;22.40;57.00;;;;;;4842324;29;20026;-82
2021/10/01 12:18:29;;;;;;;0.50;0.50;;;22.50;57.40;;;;;;4841241;29;20038;-82
2021/10/01 12:20:56;;;;;;;1.55;0.50;;;22.70;56.30;;;;;;4832340;29;20034;-85
2021/10/01 12:23:32;;;;;;;1.63;0.45;;;22.80;56.30;;;;;;4830820;29;20030;-86
2021/10/01 12:26:14;;;;;;;1.05;0.60;;;22.80;55.70;;;;;;4833874;29;20031;-83
2021/10/01 12:28:40;;;;;;;0.95;0.50;;;22.90;55.90;;;;;;4838485;29;20153;-83
2021/10/01 12:31:06;;;;;;;2.08;0.70;;;23.10;56.40;;;;;;4837428;29;20034;-82
2021/10/01 12:33:32;;;;;;;1.52;0.35;;;23.30;55.90;;;;;;4841009;29;20034;-82
2021/10/01 12:35:59;;;;;;;4.22;2.22;;;23.40;55.00;;;;;;4842773;29;20137;-83
2021/10/01 12:38:25;;;;;;;0.50;0.50;;;23.50;55.00;;;;;;4834357;29;20197;-84
2021/10/01 12:41:15;;;;;;;1.05;0.63;;;23.60;54.70;;;;;;4850998;29;20125;-82
2021/10/01 12:43:47;;;;;;;0.73;0.30;;;23.50;53.50;;;;;;4843945;29;20038;-84
2021/10/01 12:46:31;;;;;;;1.65;0.40;;;23.30;53.90;;;;;;4836087;29;20040;-84
2021/10/01 12:49:15;;;;;;;5.30;0.65;;;23.30;53.90;;;;;;4842289;29;20484;-84
2021/10/01 12:51:42;;;;;;;2.38;0.50;;;23.30;53.40;;;;;;4852058;29;20037;-85
2021/10/01 12:54:22;;;;;;;1.50;0.50;;;23.40;53.60;;;;;;4851648;29;20036;-85
2021/10/01 12:57:06;;;;;;;0.60;0.40;;;23.40;53.10;;;;;;4839574;29;20456;-85
2021/10/01 12:59:42;;;;;;;1.42;0.50;;;23.50;53.80;;;;;;4843992;29;20037;-84
2021/10/01 13:02:13;;;;;;;0.30;0.30;;;23.60;52.60;;;;;;4843370;29;20034;-83
2021/10/01 13:04:58;;;;;;;2.58;0.40;;;23.70;52.10;;;;;;4840452;29;20034;-83
2021/10/01 13:07:25;;;;;;;2.97;0.45;;;23.80;51.60;;;;;;4851981;29;20120;-83
2021/10/01 13:09:51;;;;;;;0.52;0.50;;;24.00;51.60;;;;;;4846171;29;20038;-83
2021/10/01 13:12:36;;;;;;;0.77;0.60;;;23.90;51.20;;;;;;4844870;29;20112;-83
2021/10/01 13:15:22;;;;;;;0.50;0.40;;;24.00;50.70;;;;;;4840895;29;20030;-86
2021/10/01 13:18:13;;;;;;;0.82;0.47;;;24.20;51.00;;;;;;4841197;29;20026;-84
2021/10/01 13:20:42;;;;;;;1.52;0.45;;;24.30;50.80;;;;;;4827776;29;20091;-85
2021/10/01 13:23:21;;;;;;;0.85;0.70;;;24.50;50.80;;;;;;4832137;29;20037;-84
2021/10/01 13:25:53;;;;;;;1.40;0.40;;;24.50;49.90;;;;;;4830131;29;20075;-85
2021/10/01 13:28:21;;;;;;;0.70;0.70;;;24.60;49.90;;;;;;4840930;29;20026;-89
2021/10/01 13:30:48;;;;;;;0.85;0.40;;;24.70;49.80;;;;;;4837365;29;20054;-87
2021/10/01 13:33:14;;;;;;;3.55;0.40;;;24.70;49.10;;;;;;4831029;29;20029;-85
2021/10/01 13:35:40;;;;;;;0.98;0.40;;;24.80;49.40;;;;;;4828020;29;20095;-87
2021/10/01 13:38:07;;;;;;;1.75;0.40;;;24.90;49.30;;;;;;4837692;29;20081;-87
2021/10/01 13:40:34;;;;;;;0.93;0.45;;;24.90;49.10;;;;;;4833378;29;20030;-88
2021/10/01 13:43:00;;;;;;;1.38;0.50;;;25.00;48.90;;;;;;4829907;29;20026;-88
2021/10/01 13:45:26;;;;;;;1.20;0.50;;;25.10;48.80;;;;;;4824376;29;20616;-89
2021/10/01 13:47:51;;;;;;;1.08;0.60;;;25.30;48.20;;;;;;4833656;29;20037;-89
2021/10/01 13:50:20;;;;;;;3.47;2.40;;;25.40;47.90;;;;;;4831584;29;20052;-89
2021/10/01 13:52:46;;;;;;;1.50;0.47;;;25.40;46.50;;;;;;4831341;29;20026;-88
2021/10/01 13:55:15;;;;;;;0.40;0.30;;;25.40;46.20;;;;;;4837819;29;20158;-88
2021/10/01 13:57:41;;;;;;;2.03;0.40;;;25.20;45.70;;;;;;4834440;29;20065;-88
2021/10/01 14:03:59;;;;;;;0.60;0.40;;;24.70;44.20;;;;;;4766416;30;20159;-87
2021/10/01 14:06:36;;;;;;;0.60;0.50;;;24.30;45.00;;;;;;4782248;29;20042;-88
2021/10/01 14:09:39;;;;;;;;;;;;;;;;;;;;;
2021/10/01 14:12:50;;;;;;;0.60;0.60;;;23.90;44.70;;;;;;4831282;29;20031;-87
2021/10/01 14:15:43;;;;;;;0.65;0.40;;;23.80;44.70;;;;;;4825287;29;20042;-87
2021/10/01 14:18:10;;;;;;;0.60;0.50;;;23.50;44.30;;;;;;4832736;29;20106;-84
2021/10/01 14:20:37;;;;;;;0.85;0.40;;;23.30;44.80;;;;;;4838936;29;20030;-84
2021/10/01 14:23:03;;;;;;;0.40;0.30;;;23.20;44.80;;;;;;4843829;29;20037;-87
2021/10/01 14:25:29;;;;;;;0.40;0.40;;;23.10;44.90;;;;;;4846000;29;20069;-84
2021/10/01 14:27:57;;;;;;;0.75;0.50;;;23.10;45.00;;;;;;4828080;29;20045;-84
2021/10/01 14:30:28;;;;;;;0.63;0.30;;;23.10;44.90;;;;;;4837867;29;20038;-84
2021/10/01 14:32:54;;;;;;;0.50;0.40;;;23.00;45.10;;;;;;4840429;29;20034;-85
2021/10/01 14:35:20;;;;;;;0.52;0.52;;;23.00;45.40;;;;;;4840475;29;20200;-86
2021/10/01 14:37:46;;;;;;;1.58;0.40;;;23.00;45.50;;;;;;4837738;29;20018;-84
2021/10/01 14:40:12;;;;;;;0.90;0.57;;;23.00;45.30;;;;;;4828263;29;20048;-84
2021/10/01 14:42:38;;;;;;;0.70;0.52;;;22.80;45.30;;;;;;4825088;29;20120;-84
2021/10/01 14:45:06;;;;;;;2.33;0.50;;;22.80;45.50;;;;;;4837712;29;20122;-84
2021/10/01 14:47:32;;;;;;;0.50;0.30;;;22.80;45.70;;;;;;4821648;29;20072;-83
2021/10/01 14:50:00;;;;;;;4.88;0.60;;;22.70;45.80;;;;;;4820163;29;20042;-84
2021/10/01 14:52:26;;;;;;;0.40;0.40;;;22.50;45.70;;;;;;4831444;29;20054;-83
2021/10/01 14:54:52;;;;;;;0.60;0.60;;;22.40;46.10;;;;;;4825808;29;20468;-84
2021/10/01 14:57:18;;;;;;;1.00;0.50;;;22.40;46.40;;;;;;4827645;29;20070;-85
2021/10/01 14:59:44;;;;;;;0.60;0.60;;;22.40;46.50;;;;;;4836654;29;20547;-84
2021/10/01 15:02:09;;;;;;;1.00;0.60;;;22.40;46.50;;;;;;4840629;29;20041;-86
2021/10/01 15:04:35;;;;;;;0.75;0.52;;;22.30;46.40;;;;;;4829827;29;20038;-86
2021/10/01 15:07:02;;;;;;;2.50;0.60;;;22.20;46.40;;;;;;4820334;29;20105;-85
2021/10/01 15:09:27;;;;;;;1.65;0.50;;;22.20;46.50;;;;;;4836106;29;20117;-85
2021/10/01 15:11:53;;;;;;;0.70;0.70;;;22.10;46.70;;;;;;4839408;29;20098;-83
2021/10/01 15:14:19;;;;;;;0.80;0.60;;;22.00;46.80;;;;;;4827850;29;20037;-83
2021/10/01 15:16:45;;;;;;;1.33;0.50;;;22.00;47.20;;;;;;4826686;29;20380;-85
2021/10/01 15:19:10;;;;;;;1.52;0.80;;;21.90;47.00;;;;;;4841513;29;20101;-83
2021/10/01 15:21:36;;;;;;;1.30;0.73;;;21.90;47.20;;;;;;4835339;29;20044;-84
2021/10/01 15:24:02;;;;;;;0.50;0.50;;;21.90;47.40;;;;;;4828650;29;20039;-85
2021/10/01 15:26:28;;;;;;;0.60;0.40;;;21.80;47.60;;;;;;4823284;29;20046;-85
2021/10/01 15:28:53;;;;;;;0.70;0.32;;;21.80;47.70;;;;;;4827253;29;20088;-85
2021/10/01 15:31:19;;;;;;;0.82;0.43;;;21.70;47.70;;;;;;4825093;29;20126;-84
2021/10/01 15:33:44;;;;;;;0.60;0.52;;;21.70;47.90;;;;;;4824071;29;20022;-83
2021/10/01 15:36:10;;;;;;;1.35;0.50;;;21.70;47.90;;;;;;4822869;29;20093;-84
2021/10/01 15:38:36;;;;;;;0.73;0.60;;;21.70;48.00;;;;;;4820769;29;20026;-87
2021/10/01 15:41:02;;;;;;;0.95;0.63;;;21.70;48.10;;;;;;4834366;29;20183;-87
2021/10/01 15:43:27;;;;;;;0.80;0.65;;;21.60;48.20;;;;;;4841020;29;20034;-85
2021/10/01 15:45:57;;;;;;;2.35;0.80;;;21.60;48.60;;;;;;4837520;29;20048;-83
2021/10/01 15:48:23;;;;;;;0.88;0.77;;;21.60;48.40;;;;;;4834803;29;20045;-83
2021/10/01 15:50:49;;;;;;;1.48;0.70;;;21.60;48.60;;;;;;4834587;29;20120;-85
2021/10/01 15:53:15;;;;;;;1.67;0.70;;;21.50;48.50;;;;;;4827217;29;20038;-84
2021/10/01 15:55:41;;;;;;;1.08;0.70;;;21.50;48.60;;;;;;4839546;29;20659;-83
2021/10/01 15:58:07;;;;;;;0.82;0.70;;;21.50;48.70;;;;;;4834854;29;20043;-84
2021/10/01 16:00:38;;;;;;;0.75;0.63;;;21.50;48.80;;;;;;4839861;29;20026;-85
2021/10/01 16:03:06;;;;;;;0.82;0.70;;;21.40;48.90;;;;;;4840835;29;20040;-87
2021/10/01 16:05:31;;;;;;;0.80;0.68;;;21.40;49.30;;;;;;4826771;29;20040;-84
2021/10/01 16:07:57;;;;;;;2.58;1.02;;;21.40;49.40;;;;;;4826665;29;20435;-83
2021/10/01 16:10:23;;;;;;;1.70;0.98;;;21.30;49.60;;;;;;4829623;29;20034;-85
2021/10/01 16:12:51;;;;;;;2.80;0.80;;;21.30;49.70;;;;;;4834920;29;20094;-85
2021/10/01 16:15:18;;;;;;;1.00;0.80;;;21.20;49.70;;;;;;4833352;29;20033;-84
2021/10/01 16:17:44;;;;;;;3.20;1.60;;;21.20;50.10;;;;;;4822743;29;20038;-83
2021/10/01 16:20:13;;;;;;;1.30;0.85;;;21.20;50.60;;;;;;4829570;29;20565;-84
2021/10/01 16:22:39;;;;;;;3.38;1.50;;;21.20;50.60;;;;;;4825414;29;20050;-86
2021/10/01 16:25:06;;;;;;;4.60;1.80;;;21.20;50.80;;;;;;4833984;29;20039;-86
2021/10/01 16:27:32;;;;;;;1.00;0.90;;;21.10;51.10;;;;;;4822524;29;20108;-87
2021/10/01 16:29:58;;;;;;;2.10;0.80;;;21.10;51.60;;;;;;4835340;29;20065;-86
2021/10/01 16:32:23;;;;;;;3.17;0.93;;;21.00;51.90;;;;;;4829046;29;20033;-85
2021/10/01 16:34:49;;;;;;;1.35;0.90;;;21.00;52.30;;;;;;4833706;29;20064;-86
2021/10/01 16:37:15;;;;;;;1.95;1.13;;;20.90;52.50;;;;;;4834752;29;20040;-86
2021/10/01 16:39:41;;;;;;;1.10;0.90;;;20.70;52.80;;;;;;4838575;29;20102;-88
2021/10/01 16:42:08;;;;;;;3.33;0.80;;;20.70;53.10;;;;;;4824041;29;20046;-88
2021/10/01 16:44:34;;;;;;;2.45;1.08;;;20.60;53.40;;;;;;4827128;29;20043;-89
2021/10/01 16:47:00;;;;;;;2.65;1.30;;;20.50;53.60;;;;;;4836395;29;20072;-87
2021/10/01 16:49:26;;;;;;;2.13;1.38;;;20.40;54.00;;;;;;4838976;29;20044;-86
2021/10/01 16:51:54;;;;;;;3.63;1.30;;;20.20;54.20;;;;;;4904161;23;20024;-90
2021/10/01 16:54:23;;;;;;;2.13;1.05;;;20.10;54.70;;;;;;4874442;29;20042;-91
2021/10/01 16:56:58;;;;;;;1.00;0.90;;;20.10;54.90;;;;;;4879126;29;20021;-91
2021/10/01 16:59:32;;;;;;;3.30;0.98;;;20.00;55.20;;;;;;4867238;29;20029;-90
2021/10/01 17:02:01;;;;;;;1.42;1.10;;;19.90;55.40;;;;;;4871954;29;20029;-90
2021/10/01 17:04:31;;;;;;;1.85;1.00;;;19.80;55.50;;;;;;4861285;29;20105;-90
2021/10/01 17:06:59;;;;;;;1.98;1.45;;;19.70;55.70;;;;;;4883146;29;20097;-89
2021/10/01 17:09:32;;;;;;;1.50;1.38;;;19.60;55.90;;;;;;4884668;29;20037;-90
2021/10/01 17:12:01;;;;;;;2.15;1.70;;;19.50;56.20;;;;;;4877813;29;20402;-90
2021/10/01 17:14:27;;;;;;;2.03;1.50;;;19.40;56.40;;;;;;4876687;29;20489;-91
2021/10/01 17:16:56;;;;;;;3.45;1.30;;;19.30;56.60;;;;;;4874194;29;20108;-90
2021/10/01 17:19:34;;;;;;;4.05;1.58;;;19.20;56.90;;;;;;4878740;29;20033;-90
2021/10/01 17:22:08;;;;;;;2.50;1.50;;;19.10;57.50;;;;;;4890978;29;20037;-91
2021/10/01 17:24:43;;;;;;;1.85;1.52;;;19.00;57.50;;;;;;4874437;29;20037;-91
2021/10/01 17:27:31;;;;;;;1.50;1.40;;;18.90;57.90;;;;;;4865003;29;20037;-90
2021/10/01 17:30:01;;;;;;;3.63;1.50;;;18.90;58.10;;;;;;4870622;29;20063;-91
2021/10/01 17:32:38;;;;;;;3.45;2.65;;;18.80;58.20;;;;;;4871035;29;20032;-91
2021/10/01 17:39:23;;;;;;;3.50;1.80;;;18.50;58.80;;;;;;4868891;29;20056;-91
2021/10/01 17:42:15;;;;;;;3.13;1.50;;;18.40;59.20;;;;;;4878721;29;20143;-91
2021/10/01 17:44:53;;;;;;;1.15;1.02;;;18.30;59.20;;;;;;4892334;29;20048;-92
2021/10/01 17:47:30;;;;;;;2.33;1.40;;;18.20;59.50;;;;;;4876513;29;20041;-91